Hlavní strana
METAR-TAF:

METAR-TAF

Letiště :

Oran, Alžírsko

zeměpisná šířka: 35-38N, zeměpisná délka: 000-36W, výška: 90 m

Aktuální stav počasí

Zpráva byla vytvořena před 1 hodinou a 3 minutami, v 03:00 UTC
Jihozápadní vítr 2 kt
Teplota 12°C
Vlhkost vzduchu 94%
Tlak 1023 hPa
Viditelnost: 8000 m
Polojasno ve výšce 2600 ft

METAR: DAOO 070300Z 22002KT 8000 SCT026 12/11 Q1023

Čas: 05:03 (04:03 UTC)

Předpověď počasí

Zpráva byla vytvořena před 5 hodinami a 3 minutami, v 23:00 UTC
Předpověď platná od 07 v 00 UTC do 07 v 24 UTC
vítr z různých směrů 2 kt
Viditelnost 10 km a více
Polojasno ve výšce 2000 ft
Polojasno ve výšce 10000 ft
Pravděpodobnost 30% :
Dočasný
od 07 v 03 UTC do 07 v 09 UTC
Viditelnost: 3000 m
Polojasno ve výšce 1000 ft
kouřmo
Změna
od 07 v 10 UTC do 07 v 13 UTC
Severoseverovýchodní vítr 11 kt

TAF: DAOO 062300Z 0700/0724 VRB02KT 9999 SCT020 SCT100 PROB30 TEMPO 0703/0709 3000 BR SCT010 BECMG 0710/0713 02011KT

Stav a předpovědi počasí z více než 4 000 letišť (zprávy METAR a TAF).

Červené a žluté tečky na mapě představují dostupné meteorologické stanice.

Když kurzor umístíte na tečku, zobrazí se název stanice.

Pak kliknutím zobrazíte stav a předpověď počasí.

Chcete-li změnit mapu, kliknutím na zelené tlačítko se znaménkem +mapu přiblížíte, kliknutím na zelené tlačítko se znaménkem – mapu oddálíte a kliknutím na zelené šipky přejdete na sousední mapy.


METAR-TAF: